sensor_id;sensor_type;location;lat;lon;timestamp;temperature;humidity
79065;DHT22;68469;51.502;7.462;2023-06-22T00:01:54;22.90;60.10
79065;DHT22;68469;51.502;7.462;2023-06-22T00:04:19;22.90;60.40
79065;DHT22;68469;51.502;7.462;2023-06-22T00:06:45;22.80;60.60
79065;DHT22;68469;51.502;7.462;2023-06-22T00:09:10;22.80;60.70
79065;DHT22;68469;51.502;7.462;2023-06-22T00:11:37;22.70;61.00
79065;DHT22;68469;51.502;7.462;2023-06-22T00:14:03;22.70;61.00
79065;DHT22;68469;51.502;7.462;2023-06-22T00:16:28;22.70;61.10
79065;DHT22;68469;51.502;7.462;2023-06-22T00:18:54;22.70;61.40
79065;DHT22;68469;51.502;7.462;2023-06-22T00:21:20;22.60;61.40
79065;DHT22;68469;51.502;7.462;2023-06-22T00:23:46;22.60;61.50
79065;DHT22;68469;51.502;7.462;2023-06-22T00:26:13;22.60;61.50
79065;DHT22;68469;51.502;7.462;2023-06-22T00:28:39;22.50;61.60
79065;DHT22;68469;51.502;7.462;2023-06-22T00:31:04;22.50;61.80
79065;DHT22;68469;51.502;7.462;2023-06-22T00:33:30;22.50;62.20
79065;DHT22;68469;51.502;7.462;2023-06-22T00:35:56;22.50;62.00
79065;DHT22;68469;51.502;7.462;2023-06-22T00:38:22;22.50;62.20
79065;DHT22;68469;51.502;7.462;2023-06-22T00:40:48;22.50;62.30
79065;DHT22;68469;51.502;7.462;2023-06-22T00:43:13;22.40;62.60
79065;DHT22;68469;51.502;7.462;2023-06-22T00:45:39;22.40;62.70
79065;DHT22;68469;51.502;7.462;2023-06-22T00:48:06;22.40;62.80
79065;DHT22;68469;51.502;7.462;2023-06-22T00:50:33;22.40;63.00
79065;DHT22;68469;51.502;7.462;2023-06-22T00:53:01;22.30;63.10
79065;DHT22;68469;51.502;7.462;2023-06-22T00:55:30;22.30;63.50
79065;DHT22;68469;51.502;7.462;2023-06-22T00:57:56;22.30;63.60
79065;DHT22;68469;51.502;7.462;2023-06-22T01:00:23;22.30;63.80
79065;DHT22;68469;51.502;7.462;2023-06-22T01:02:51;22.30;63.90
79065;DHT22;68469;51.502;7.462;2023-06-22T01:05:19;22.20;64.20
79065;DHT22;68469;51.502;7.462;2023-06-22T01:10:15;22.20;64.40
79065;DHT22;68469;51.502;7.462;2023-06-22T01:12:48;22.20;64.70
79065;DHT22;68469;51.502;7.462;2023-06-22T01:15:21;22.10;64.80
79065;DHT22;68469;51.502;7.462;2023-06-22T01:17:49;22.10;65.30
79065;DHT22;68469;51.502;7.462;2023-06-22T01:20:16;22.10;65.60
79065;DHT22;68469;51.502;7.462;2023-06-22T01:26:06;22.00;65.70
79065;DHT22;68469;51.502;7.462;2023-06-22T01:28:45;22.00;65.70
79065;DHT22;68469;51.502;7.462;2023-06-22T01:31:14;22.00;66.00
79065;DHT22;68469;51.502;7.462;2023-06-22T01:33:43;22.00;66.00
79065;DHT22;68469;51.502;7.462;2023-06-22T01:36:10;22.00;66.10
79065;DHT22;68469;51.502;7.462;2023-06-22T01:38:37;22.00;66.20
79065;DHT22;68469;51.502;7.462;2023-06-22T01:41:03;22.00;66.20
79065;DHT22;68469;51.502;7.462;2023-06-22T01:43:30;22.00;66.30
79065;DHT22;68469;51.502;7.462;2023-06-22T01:45:57;22.10;66.20
79065;DHT22;68469;51.502;7.462;2023-06-22T01:48:23;22.00;66.10
79065;DHT22;68469;51.502;7.462;2023-06-22T01:50:52;22.10;66.20
79065;DHT22;68469;51.502;7.462;2023-06-22T01:53:18;22.10;66.00
79065;DHT22;68469;51.502;7.462;2023-06-22T01:55:43;22.10;66.10
79065;DHT22;68469;51.502;7.462;2023-06-22T01:58:09;22.10;66.10
79065;DHT22;68469;51.502;7.462;2023-06-22T02:00:38;22.10;66.20
79065;DHT22;68469;51.502;7.462;2023-06-22T02:03:23;22.10;66.20
79065;DHT22;68469;51.502;7.462;2023-06-22T02:06:07;22.10;66.20
79065;DHT22;68469;51.502;7.462;2023-06-22T02:08:40;22.10;66.10
79065;DHT22;68469;51.502;7.462;2023-06-22T02:11:08;22.10;66.10
79065;DHT22;68469;51.502;7.462;2023-06-22T02:13:34;22.10;66.20
79065;DHT22;68469;51.502;7.462;2023-06-22T02:16:01;22.10;66.30
79065;DHT22;68469;51.502;7.462;2023-06-22T02:18:27;22.00;66.30
79065;DHT22;68469;51.502;7.462;2023-06-22T02:20:53;22.00;66.70
79065;DHT22;68469;51.502;7.462;2023-06-22T02:23:19;22.00;66.50
79065;DHT22;68469;51.502;7.462;2023-06-22T02:25:44;22.00;66.70
79065;DHT22;68469;51.502;7.462;2023-06-22T02:28:10;21.90;66.90
79065;DHT22;68469;51.502;7.462;2023-06-22T02:30:36;21.90;67.00
79065;DHT22;68469;51.502;7.462;2023-06-22T02:33:01;21.90;67.00
79065;DHT22;68469;51.502;7.462;2023-06-22T02:35:28;21.90;67.30
79065;DHT22;68469;51.502;7.462;2023-06-22T02:37:58;21.90;67.50
79065;DHT22;68469;51.502;7.462;2023-06-22T02:40:25;21.90;67.60
79065;DHT22;68469;51.502;7.462;2023-06-22T02:42:50;21.90;67.60
79065;DHT22;68469;51.502;7.462;2023-06-22T02:45:16;21.80;67.70
79065;DHT22;68469;51.502;7.462;2023-06-22T02:47:42;21.90;67.80
79065;DHT22;68469;51.502;7.462;2023-06-22T02:50:08;21.80;68.10
79065;DHT22;68469;51.502;7.462;2023-06-22T02:52:33;21.80;68.10
79065;DHT22;68469;51.502;7.462;2023-06-22T02:54:59;21.80;68.00
79065;DHT22;68469;51.502;7.462;2023-06-22T02:57:25;21.70;68.20
79065;DHT22;68469;51.502;7.462;2023-06-22T02:59:50;21.70;68.60
79065;DHT22;68469;51.502;7.462;2023-06-22T03:02:16;21.60;68.80
79065;DHT22;68469;51.502;7.462;2023-06-22T03:04:41;21.60;69.10
79065;DHT22;68469;51.502;7.462;2023-06-22T03:07:08;21.50;69.20
79065;DHT22;68469;51.502;7.462;2023-06-22T03:09:33;21.50;69.40
79065;DHT22;68469;51.502;7.462;2023-06-22T03:11:59;21.50;69.80
79065;DHT22;68469;51.502;7.462;2023-06-22T03:14:25;21.50;69.70
79065;DHT22;68469;51.502;7.462;2023-06-22T03:16:50;21.50;69.90
79065;DHT22;68469;51.502;7.462;2023-06-22T03:19:16;21.50;69.80
79065;DHT22;68469;51.502;7.462;2023-06-22T03:21:42;21.50;69.80
79065;DHT22;68469;51.502;7.462;2023-06-22T03:24:07;21.40;69.70
79065;DHT22;68469;51.502;7.462;2023-06-22T03:26:34;21.50;70.10
79065;DHT22;68469;51.502;7.462;2023-06-22T03:29:00;21.40;70.70
79065;DHT22;68469;51.502;7.462;2023-06-22T03:31:25;21.40;70.20
79065;DHT22;68469;51.502;7.462;2023-06-22T03:33:51;21.40;70.30
79065;DHT22;68469;51.502;7.462;2023-06-22T03:36:17;21.40;70.40
79065;DHT22;68469;51.502;7.462;2023-06-22T03:38:46;21.40;70.10
79065;DHT22;68469;51.502;7.462;2023-06-22T03:41:12;21.40;70.20
79065;DHT22;68469;51.502;7.462;2023-06-22T03:43:38;21.40;70.10
79065;DHT22;68469;51.502;7.462;2023-06-22T03:46:04;21.40;70.10
79065;DHT22;68469;51.502;7.462;2023-06-22T03:48:29;21.50;69.90
79065;DHT22;68469;51.502;7.462;2023-06-22T03:50:55;21.50;69.90
79065;DHT22;68469;51.502;7.462;2023-06-22T03:53:21;21.50;70.00
79065;DHT22;68469;51.502;7.462;2023-06-22T03:55:50;21.50;69.90
79065;DHT22;68469;51.502;7.462;2023-06-22T03:58:17;21.50;70.00
79065;DHT22;68469;51.502;7.462;2023-06-22T04:00:45;21.50;70.10
79065;DHT22;68469;51.502;7.462;2023-06-22T04:03:11;21.50;70.20
79065;DHT22;68469;51.502;7.462;2023-06-22T04:05:38;21.50;70.30
79065;DHT22;68469;51.502;7.462;2023-06-22T04:08:04;21.50;70.20
79065;DHT22;68469;51.502;7.462;2023-06-22T04:10:30;21.50;70.10
79065;DHT22;68469;51.502;7.462;2023-06-22T04:12:55;21.50;70.00
79065;DHT22;68469;51.502;7.462;2023-06-22T04:15:21;21.60;70.00
79065;DHT22;68469;51.502;7.462;2023-06-22T04:17:47;21.60;70.20
79065;DHT22;68469;51.502;7.462;2023-06-22T04:20:13;21.50;70.20
79065;DHT22;68469;51.502;7.462;2023-06-22T04:22:38;21.50;70.20
79065;DHT22;68469;51.502;7.462;2023-06-22T04:25:06;21.50;70.40
79065;DHT22;68469;51.502;7.462;2023-06-22T04:27:35;21.50;70.40
79065;DHT22;68469;51.502;7.462;2023-06-22T04:30:06;21.50;70.00
79065;DHT22;68469;51.502;7.462;2023-06-22T04:32:35;21.40;70.00
79065;DHT22;68469;51.502;7.462;2023-06-22T04:35:05;21.50;70.40
79065;DHT22;68469;51.502;7.462;2023-06-22T04:37:31;21.50;70.40
79065;DHT22;68469;51.502;7.462;2023-06-22T04:39:57;21.50;70.20
79065;DHT22;68469;51.502;7.462;2023-06-22T04:42:24;21.50;69.80
79065;DHT22;68469;51.502;7.462;2023-06-22T04:44:50;21.60;69.20
79065;DHT22;68469;51.502;7.462;2023-06-22T04:47:16;21.60;69.10
79065;DHT22;68469;51.502;7.462;2023-06-22T04:49:42;21.50;69.30
79065;DHT22;68469;51.502;7.462;2023-06-22T04:52:10;21.40;69.90
79065;DHT22;68469;51.502;7.462;2023-06-22T04:54:38;21.40;70.00
79065;DHT22;68469;51.502;7.462;2023-06-22T04:57:05;21.30;70.70
79065;DHT22;68469;51.502;7.462;2023-06-22T04:59:36;21.20;71.20
79065;DHT22;68469;51.502;7.462;2023-06-22T05:02:02;21.20;71.40
79065;DHT22;68469;51.502;7.462;2023-06-22T05:04:29;21.10;71.50
79065;DHT22;68469;51.502;7.462;2023-06-22T05:07:02;21.00;71.20
79065;DHT22;68469;51.502;7.462;2023-06-22T05:09:28;21.00;71.70
79065;DHT22;68469;51.502;7.462;2023-06-22T05:11:54;21.00;72.00
79065;DHT22;68469;51.502;7.462;2023-06-22T05:14:21;21.00;71.80
79065;DHT22;68469;51.502;7.462;2023-06-22T05:16:48;21.00;72.00
79065;DHT22;68469;51.502;7.462;2023-06-22T05:19:13;21.00;71.80
79065;DHT22;68469;51.502;7.462;2023-06-22T05:21:39;21.00;72.30
79065;DHT22;68469;51.502;7.462;2023-06-22T05:24:05;21.00;71.40
79065;DHT22;68469;51.502;7.462;2023-06-22T05:26:32;21.10;71.40
79065;DHT22;68469;51.502;7.462;2023-06-22T05:28:59;21.10;71.40
79065;DHT22;68469;51.502;7.462;2023-06-22T05:31:26;21.10;71.50
79065;DHT22;68469;51.502;7.462;2023-06-22T05:33:53;21.10;71.60
79065;DHT22;68469;51.502;7.462;2023-06-22T05:36:18;21.20;71.40
79065;DHT22;68469;51.502;7.462;2023-06-22T05:38:51;21.20;71.00
79065;DHT22;68469;51.502;7.462;2023-06-22T05:41:17;21.30;70.90
79065;DHT22;68469;51.502;7.462;2023-06-22T05:43:42;21.30;70.30
79065;DHT22;68469;51.502;7.462;2023-06-22T05:46:08;21.40;69.80
79065;DHT22;68469;51.502;7.462;2023-06-22T05:48:34;21.30;70.00
79065;DHT22;68469;51.502;7.462;2023-06-22T05:50:59;21.40;69.80
79065;DHT22;68469;51.502;7.462;2023-06-22T05:53:25;21.40;69.50
79065;DHT22;68469;51.502;7.462;2023-06-22T05:55:51;21.50;69.50
79065;DHT22;68469;51.502;7.462;2023-06-22T05:58:16;21.50;69.50
79065;DHT22;68469;51.502;7.462;2023-06-22T06:00:42;21.60;69.80
79065;DHT22;68469;51.502;7.462;2023-06-22T06:03:09;21.60;69.80
79065;DHT22;68469;51.502;7.462;2023-06-22T06:05:35;21.70;69.80
79065;DHT22;68469;51.502;7.462;2023-06-22T06:08:03;21.80;69.80
79065;DHT22;68469;51.502;7.462;2023-06-22T06:10:30;21.90;69.90
79065;DHT22;68469;51.502;7.462;2023-06-22T06:12:56;21.90;70.10
79065;DHT22;68469;51.502;7.462;2023-06-22T06:15:22;21.90;70.40
79065;DHT22;68469;51.502;7.462;2023-06-22T06:17:49;22.00;70.70
79065;DHT22;68469;51.502;7.462;2023-06-22T06:20:15;22.00;70.70
79065;DHT22;68469;51.502;7.462;2023-06-22T06:22:41;22.00;70.80
79065;DHT22;68469;51.502;7.462;2023-06-22T06:25:08;22.00;70.90
79065;DHT22;68469;51.502;7.462;2023-06-22T06:27:34;22.10;70.80
79065;DHT22;68469;51.502;7.462;2023-06-22T06:29:59;22.10;71.00
79065;DHT22;68469;51.502;7.462;2023-06-22T06:32:25;22.10;71.00
79065;DHT22;68469;51.502;7.462;2023-06-22T06:34:50;22.10;71.10
79065;DHT22;68469;51.502;7.462;2023-06-22T06:37:17;22.10;71.50
79065;DHT22;68469;51.502;7.462;2023-06-22T06:39:44;22.10;71.60
79065;DHT22;68469;51.502;7.462;2023-06-22T06:42:09;22.10;71.80
79065;DHT22;68469;51.502;7.462;2023-06-22T06:44:36;22.10;72.50
79065;DHT22;68469;51.502;7.462;2023-06-22T06:47:03;22.20;72.20
79065;DHT22;68469;51.502;7.462;2023-06-22T06:49:29;22.20;72.30
79065;DHT22;68469;51.502;7.462;2023-06-22T06:51:54;22.20;72.60
79065;DHT22;68469;51.502;7.462;2023-06-22T06:54:21;22.30;72.90
79065;DHT22;68469;51.502;7.462;2023-06-22T06:56:47;22.40;72.50
79065;DHT22;68469;51.502;7.462;2023-06-22T06:59:14;22.50;72.10
79065;DHT22;68469;51.502;7.462;2023-06-22T07:01:41;22.50;72.00
79065;DHT22;68469;51.502;7.462;2023-06-22T07:04:06;22.60;71.90
79065;DHT22;68469;51.502;7.462;2023-06-22T07:06:32;22.60;71.70
79065;DHT22;68469;51.502;7.462;2023-06-22T07:08:59;22.60;71.60
79065;DHT22;68469;51.502;7.462;2023-06-22T07:11:25;22.70;71.50
79065;DHT22;68469;51.502;7.462;2023-06-22T07:13:50;22.70;71.40
79065;DHT22;68469;51.502;7.462;2023-06-22T07:16:16;22.70;71.60
79065;DHT22;68469;51.502;7.462;2023-06-22T07:18:42;22.70;71.80
79065;DHT22;68469;51.502;7.462;2023-06-22T07:21:07;22.60;72.00
79065;DHT22;68469;51.502;7.462;2023-06-22T07:23:33;22.60;71.90
79065;DHT22;68469;51.502;7.462;2023-06-22T07:25:59;22.60;71.70
79065;DHT22;68469;51.502;7.462;2023-06-22T07:28:27;22.60;72.00
79065;DHT22;68469;51.502;7.462;2023-06-22T07:30:53;22.50;72.50
79065;DHT22;68469;51.502;7.462;2023-06-22T07:33:19;22.40;72.70
79065;DHT22;68469;51.502;7.462;2023-06-22T07:35:45;22.40;72.80
79065;DHT22;68469;51.502;7.462;2023-06-22T07:38:12;22.30;73.00
79065;DHT22;68469;51.502;7.462;2023-06-22T07:40:38;22.20;73.40
79065;DHT22;68469;51.502;7.462;2023-06-22T07:43:04;22.20;73.30
79065;DHT22;68469;51.502;7.462;2023-06-22T07:45:29;22.20;73.50
79065;DHT22;68469;51.502;7.462;2023-06-22T07:47:55;22.20;73.40
79065;DHT22;68469;51.502;7.462;2023-06-22T07:50:21;22.20;73.30
79065;DHT22;68469;51.502;7.462;2023-06-22T07:52:46;22.30;73.00
79065;DHT22;68469;51.502;7.462;2023-06-22T07:55:13;22.40;72.70
79065;DHT22;68469;51.502;7.462;2023-06-22T07:57:39;22.40;73.30
79065;DHT22;68469;51.502;7.462;2023-06-22T08:00:06;22.50;74.10
79065;DHT22;68469;51.502;7.462;2023-06-22T08:02:44;22.60;73.90
79065;DHT22;68469;51.502;7.462;2023-06-22T08:05:10;22.70;73.80
79065;DHT22;68469;51.502;7.462;2023-06-22T08:07:36;22.80;73.60
79065;DHT22;68469;51.502;7.462;2023-06-22T08:10:04;22.80;74.00
79065;DHT22;68469;51.502;7.462;2023-06-22T08:12:29;22.90;74.30
79065;DHT22;68469;51.502;7.462;2023-06-22T08:14:55;23.00;74.60
79065;DHT22;68469;51.502;7.462;2023-06-22T08:17:22;23.10;74.40
79065;DHT22;68469;51.502;7.462;2023-06-22T08:19:48;23.20;73.00
79065;DHT22;68469;51.502;7.462;2023-06-22T08:22:15;23.30;72.20
79065;DHT22;68469;51.502;7.462;2023-06-22T08:24:41;23.30;72.00
79065;DHT22;68469;51.502;7.462;2023-06-22T08:27:10;23.50;71.40
79065;DHT22;68469;51.502;7.462;2023-06-22T08:29:37;23.60;70.20
79065;DHT22;68469;51.502;7.462;2023-06-22T08:32:03;23.60;70.30
79065;DHT22;68469;51.502;7.462;2023-06-22T08:34:29;23.80;69.60
79065;DHT22;68469;51.502;7.462;2023-06-22T08:36:54;24.00;69.00
79065;DHT22;68469;51.502;7.462;2023-06-22T08:39:20;24.20;68.70
79065;DHT22;68469;51.502;7.462;2023-06-22T08:41:47;24.30;67.40
79065;DHT22;68469;51.502;7.462;2023-06-22T08:44:12;24.70;67.20
79065;DHT22;68469;51.502;7.462;2023-06-22T08:46:38;25.00;66.70
79065;DHT22;68469;51.502;7.462;2023-06-22T08:49:06;25.10;64.70
79065;DHT22;68469;51.502;7.462;2023-06-22T08:51:32;25.20;64.70
79065;DHT22;68469;51.502;7.462;2023-06-22T08:53:58;25.20;65.00
79065;DHT22;68469;51.502;7.462;2023-06-22T08:56:23;25.40;64.60
79065;DHT22;68469;51.502;7.462;2023-06-22T08:58:49;25.60;63.90
79065;DHT22;68469;51.502;7.462;2023-06-22T09:01:15;25.60;63.40
79065;DHT22;68469;51.502;7.462;2023-06-22T09:03:43;25.80;63.50
79065;DHT22;68469;51.502;7.462;2023-06-22T09:06:08;26.00;63.10
79065;DHT22;68469;51.502;7.462;2023-06-22T09:08:35;26.10;62.50
79065;DHT22;68469;51.502;7.462;2023-06-22T09:11:01;26.30;61.80
79065;DHT22;68469;51.502;7.462;2023-06-22T09:15:54;26.60;61.20
79065;DHT22;68469;51.502;7.462;2023-06-22T09:18:20;26.70;60.40
79065;DHT22;68469;51.502;7.462;2023-06-22T09:20:45;26.50;60.20
79065;DHT22;68469;51.502;7.462;2023-06-22T09:23:11;26.50;60.10
79065;DHT22;68469;51.502;7.462;2023-06-22T09:25:37;26.60;60.20
79065;DHT22;68469;51.502;7.462;2023-06-22T09:28:03;26.60;60.70
79065;DHT22;68469;51.502;7.462;2023-06-22T09:30:28;26.80;59.80
79065;DHT22;68469;51.502;7.462;2023-06-22T09:32:54;26.80;60.00
79065;DHT22;68469;51.502;7.462;2023-06-22T09:35:19;26.80;60.00
79065;DHT22;68469;51.502;7.462;2023-06-22T09:37:45;26.90;59.40
79065;DHT22;68469;51.502;7.462;2023-06-22T09:40:11;27.20;59.00
79065;DHT22;68469;51.502;7.462;2023-06-22T09:42:39;27.30;59.10
79065;DHT22;68469;51.502;7.462;2023-06-22T09:45:05;27.60;58.70
79065;DHT22;68469;51.502;7.462;2023-06-22T09:47:31;27.80;58.00
79065;DHT22;68469;51.502;7.462;2023-06-22T09:49:56;27.80;57.40
79065;DHT22;68469;51.502;7.462;2023-06-22T09:52:24;27.90;57.30
79065;DHT22;68469;51.502;7.462;2023-06-22T09:54:50;28.10;57.30
79065;DHT22;68469;51.502;7.462;2023-06-22T09:57:15;28.30;56.60
79065;DHT22;68469;51.502;7.462;2023-06-22T09:59:41;28.30;56.60
79065;DHT22;68469;51.502;7.462;2023-06-22T10:02:07;28.40;56.70
79065;DHT22;68469;51.502;7.462;2023-06-22T10:04:36;28.30;57.40
79065;DHT22;68469;51.502;7.462;2023-06-22T10:07:02;28.40;57.50
79065;DHT22;68469;51.502;7.462;2023-06-22T10:09:28;28.70;57.50
79065;DHT22;68469;51.502;7.462;2023-06-22T10:11:53;28.70;56.90
79065;DHT22;68469;51.502;7.462;2023-06-22T10:14:19;28.90;56.80
79065;DHT22;68469;51.502;7.462;2023-06-22T10:16:45;29.10;56.60
79065;DHT22;68469;51.502;7.462;2023-06-22T10:19:11;29.10;55.60
79065;DHT22;68469;51.502;7.462;2023-06-22T10:21:36;29.20;55.90
79065;DHT22;68469;51.502;7.462;2023-06-22T10:24:02;29.20;56.10
79065;DHT22;68469;51.502;7.462;2023-06-22T10:26:34;29.30;56.30
79065;DHT22;68469;51.502;7.462;2023-06-22T10:29:01;29.20;56.20
79065;DHT22;68469;51.502;7.462;2023-06-22T10:31:27;29.20;55.80
79065;DHT22;68469;51.502;7.462;2023-06-22T10:33:54;29.20;56.10
79065;DHT22;68469;51.502;7.462;2023-06-22T10:36:19;29.30;55.90
79065;DHT22;68469;51.502;7.462;2023-06-22T10:38:45;29.20;55.80
79065;DHT22;68469;51.502;7.462;2023-06-22T10:41:12;29.20;56.00
79065;DHT22;68469;51.502;7.462;2023-06-22T10:43:38;29.30;55.90
79065;DHT22;68469;51.502;7.462;2023-06-22T10:46:03;29.40;55.90
79065;DHT22;68469;51.502;7.462;2023-06-22T10:48:29;29.50;55.40
79065;DHT22;68469;51.502;7.462;2023-06-22T10:50:55;29.20;56.30
79065;DHT22;68469;51.502;7.462;2023-06-22T10:53:21;29.00;57.10
79065;DHT22;68469;51.502;7.462;2023-06-22T10:55:47;28.90;56.30
79065;DHT22;68469;51.502;7.462;2023-06-22T10:58:12;29.00;56.60
79065;DHT22;68469;51.502;7.462;2023-06-22T11:00:38;29.00;56.10
79065;DHT22;68469;51.502;7.462;2023-06-22T11:03:04;28.90;56.00
79065;DHT22;68469;51.502;7.462;2023-06-22T11:05:29;28.70;56.10
79065;DHT22;68469;51.502;7.462;2023-06-22T11:07:55;28.50;56.50
79065;DHT22;68469;51.502;7.462;2023-06-22T11:10:20;28.30;56.70
79065;DHT22;68469;51.502;7.462;2023-06-22T11:12:46;28.00;57.30
79065;DHT22;68469;51.502;7.462;2023-06-22T11:15:12;27.80;57.70
79065;DHT22;68469;51.502;7.462;2023-06-22T11:17:37;27.60;58.00
79065;DHT22;68469;51.502;7.462;2023-06-22T11:20:03;27.30;58.60
79065;DHT22;68469;51.502;7.462;2023-06-22T11:22:39;27.20;58.80
79065;DHT22;68469;51.502;7.462;2023-06-22T11:25:05;27.10;59.20
79065;DHT22;68469;51.502;7.462;2023-06-22T11:27:31;26.90;62.40
79065;DHT22;68469;51.502;7.462;2023-06-22T11:29:57;26.50;72.30
79065;DHT22;68469;51.502;7.462;2023-06-22T11:32:23;26.10;73.40
79065;DHT22;68469;51.502;7.462;2023-06-22T11:34:49;25.70;74.30
79065;DHT22;68469;51.502;7.462;2023-06-22T11:37:14;25.30;75.20
79065;DHT22;68469;51.502;7.462;2023-06-22T11:39:41;24.80;84.20
79065;DHT22;68469;51.502;7.462;2023-06-22T11:42:07;24.20;86.90
79065;DHT22;68469;51.502;7.462;2023-06-22T11:44:33;24.00;86.90
79065;DHT22;68469;51.502;7.462;2023-06-22T11:46:59;23.70;90.80
79065;DHT22;68469;51.502;7.462;2023-06-22T11:49:26;23.50;92.90
79065;DHT22;68469;51.502;7.462;2023-06-22T11:51:52;23.30;93.30
79065;DHT22;68469;51.502;7.462;2023-06-22T11:54:17;23.30;93.50
79065;DHT22;68469;51.502;7.462;2023-06-22T11:56:43;23.20;93.70
79065;DHT22;68469;51.502;7.462;2023-06-22T11:59:09;23.00;94.60
79065;DHT22;68469;51.502;7.462;2023-06-22T12:01:34;22.80;95.40
79065;DHT22;68469;51.502;7.462;2023-06-22T12:04:00;22.60;95.30
79065;DHT22;68469;51.502;7.462;2023-06-22T12:06:26;22.50;96.40
79065;DHT22;68469;51.502;7.462;2023-06-22T12:08:51;22.40;95.10
79065;DHT22;68469;51.502;7.462;2023-06-22T12:11:17;22.30;97.00
79065;DHT22;68469;51.502;7.462;2023-06-22T12:13:42;22.40;97.80
79065;DHT22;68469;51.502;7.462;2023-06-22T12:16:08;22.30;98.00
79065;DHT22;68469;51.502;7.462;2023-06-22T12:18:34;22.30;98.40
79065;DHT22;68469;51.502;7.462;2023-06-22T12:20:59;22.30;98.60
79065;DHT22;68469;51.502;7.462;2023-06-22T12:23:25;22.30;98.60
79065;DHT22;68469;51.502;7.462;2023-06-22T12:25:50;22.30;98.40
79065;DHT22;68469;51.502;7.462;2023-06-22T12:28:16;22.20;98.40
79065;DHT22;68469;51.502;7.462;2023-06-22T12:30:42;22.20;98.70
79065;DHT22;68469;51.502;7.462;2023-06-22T12:33:08;22.10;98.30
79065;DHT22;68469;51.502;7.462;2023-06-22T12:35:34;22.10;98.10
79065;DHT22;68469;51.502;7.462;2023-06-22T12:38:00;21.90;98.10
79065;DHT22;68469;51.502;7.462;2023-06-22T12:40:25;21.70;97.40
79065;DHT22;68469;51.502;7.462;2023-06-22T12:42:51;21.60;97.20
79065;DHT22;68469;51.502;7.462;2023-06-22T12:45:17;21.50;97.60
79065;DHT22;68469;51.502;7.462;2023-06-22T12:47:42;21.50;97.40
79065;DHT22;68469;51.502;7.462;2023-06-22T12:50:08;21.40;97.80
79065;DHT22;68469;51.502;7.462;2023-06-22T12:52:36;21.50;97.60
79065;DHT22;68469;51.502;7.462;2023-06-22T12:55:04;21.40;98.00
79065;DHT22;68469;51.502;7.462;2023-06-22T12:57:30;21.40;98.90
79065;DHT22;68469;51.502;7.462;2023-06-22T12:59:55;21.40;98.40
79065;DHT22;68469;51.502;7.462;2023-06-22T13:02:21;21.30;98.60
79065;DHT22;68469;51.502;7.462;2023-06-22T13:04:46;21.50;99.70
79065;DHT22;68469;51.502;7.462;2023-06-22T13:07:12;21.70;99.90
79065;DHT22;68469;51.502;7.462;2023-06-22T13:09:38;22.10;99.90
79065;DHT22;68469;51.502;7.462;2023-06-22T13:12:04;22.40;99.90
79065;DHT22;68469;51.502;7.462;2023-06-22T13:14:29;22.60;99.90
79065;DHT22;68469;51.502;7.462;2023-06-22T13:16:55;22.70;99.70
79065;DHT22;68469;51.502;7.462;2023-06-22T13:19:21;22.60;98.00
79065;DHT22;68469;51.502;7.462;2023-06-22T13:21:46;22.70;96.60
79065;DHT22;68469;51.502;7.462;2023-06-22T13:24:12;22.70;95.50
79065;DHT22;68469;51.502;7.462;2023-06-22T13:26:38;22.70;96.40
79065;DHT22;68469;51.502;7.462;2023-06-22T13:29:03;22.70;94.80
79065;DHT22;68469;51.502;7.462;2023-06-22T13:31:29;22.80;94.00
79065;DHT22;68469;51.502;7.462;2023-06-22T13:33:55;22.80;93.90
79065;DHT22;68469;51.502;7.462;2023-06-22T13:36:20;22.80;93.80
79065;DHT22;68469;51.502;7.462;2023-06-22T13:38:46;22.90;93.40
79065;DHT22;68469;51.502;7.462;2023-06-22T13:41:12;23.00;92.60
79065;DHT22;68469;51.502;7.462;2023-06-22T13:43:38;23.00;92.60
79065;DHT22;68469;51.502;7.462;2023-06-22T13:46:03;23.10;91.30
79065;DHT22;68469;51.502;7.462;2023-06-22T13:48:29;23.10;92.10
79065;DHT22;68469;51.502;7.462;2023-06-22T13:50:55;23.10;92.30
79065;DHT22;68469;51.502;7.462;2023-06-22T13:53:20;23.10;92.50
79065;DHT22;68469;51.502;7.462;2023-06-22T13:55:46;23.20;91.80
79065;DHT22;68469;51.502;7.462;2023-06-22T13:58:13;23.30;91.50
79065;DHT22;68469;51.502;7.462;2023-06-22T14:00:38;23.20;88.00
79065;DHT22;68469;51.502;7.462;2023-06-22T14:03:04;23.20;88.50
79065;DHT22;68469;51.502;7.462;2023-06-22T14:05:29;23.00;90.00
79065;DHT22;68469;51.502;7.462;2023-06-22T14:07:55;22.90;89.50
79065;DHT22;68469;51.502;7.462;2023-06-22T14:10:21;22.80;90.30
79065;DHT22;68469;51.502;7.462;2023-06-22T14:12:46;22.80;90.10
79065;DHT22;68469;51.502;7.462;2023-06-22T14:15:12;22.80;90.10
79065;DHT22;68469;51.502;7.462;2023-06-22T14:17:37;22.80;89.70
79065;DHT22;68469;51.502;7.462;2023-06-22T14:20:03;22.90;90.30
79065;DHT22;68469;51.502;7.462;2023-06-22T14:22:30;22.90;90.50
79065;DHT22;68469;51.502;7.462;2023-06-22T14:24:56;23.00;90.40
79065;DHT22;68469;51.502;7.462;2023-06-22T14:27:23;23.00;90.10
79065;DHT22;68469;51.502;7.462;2023-06-22T14:29:48;23.00;90.20
79065;DHT22;68469;51.502;7.462;2023-06-22T14:32:14;23.00;89.30
79065;DHT22;68469;51.502;7.462;2023-06-22T14:34:40;23.10;89.90
79065;DHT22;68469;51.502;7.462;2023-06-22T14:37:10;23.10;89.80
79065;DHT22;68469;51.502;7.462;2023-06-22T14:39:36;23.10;90.10
79065;DHT22;68469;51.502;7.462;2023-06-22T14:42:02;23.10;90.00
79065;DHT22;68469;51.502;7.462;2023-06-22T14:44:29;23.10;90.00
79065;DHT22;68469;51.502;7.462;2023-06-22T14:46:55;23.10;90.20
79065;DHT22;68469;51.502;7.462;2023-06-22T14:49:21;23.00;90.10
79065;DHT22;68469;51.502;7.462;2023-06-22T14:51:46;23.00;90.00
79065;DHT22;68469;51.502;7.462;2023-06-22T14:54:12;23.00;90.40
79065;DHT22;68469;51.502;7.462;2023-06-22T14:56:38;23.00;90.80
79065;DHT22;68469;51.502;7.462;2023-06-22T14:59:03;23.00;90.00
79065;DHT22;68469;51.502;7.462;2023-06-22T15:01:29;23.00;90.40
79065;DHT22;68469;51.502;7.462;2023-06-22T15:03:55;23.10;90.50
79065;DHT22;68469;51.502;7.462;2023-06-22T15:06:21;23.20;90.80
79065;DHT22;68469;51.502;7.462;2023-06-22T15:08:47;23.30;90.50
79065;DHT22;68469;51.502;7.462;2023-06-22T15:11:12;23.40;89.20
79065;DHT22;68469;51.502;7.462;2023-06-22T15:13:42;23.50;89.00
79065;DHT22;68469;51.502;7.462;2023-06-22T15:16:08;23.60;88.40
79065;DHT22;68469;51.502;7.462;2023-06-22T15:18:34;23.70;88.10
79065;DHT22;68469;51.502;7.462;2023-06-22T15:21:01;23.70;88.40
79065;DHT22;68469;51.502;7.462;2023-06-22T15:23:27;23.70;88.50
79065;DHT22;68469;51.502;7.462;2023-06-22T15:25:55;23.70;88.30
79065;DHT22;68469;51.502;7.462;2023-06-22T15:28:24;23.60;89.00
79065;DHT22;68469;51.502;7.462;2023-06-22T15:30:50;23.50;88.90
79065;DHT22;68469;51.502;7.462;2023-06-22T15:33:16;23.50;89.00